createdAt,value
2018-10-07T00:00:03.195Z,72
2018-10-07T00:00:15.366Z,72
2018-10-07T00:00:27.557Z,72
2018-10-07T00:00:39.785Z,72
2018-10-07T00:00:52.026Z,72
2018-10-07T00:01:04.235Z,72
2018-10-07T00:01:16.409Z,72
2018-10-07T00:01:28.592Z,72
2018-10-07T00:01:40.760Z,72
2018-10-07T00:01:53.058Z,72
2018-10-07T00:02:05.232Z,72
2018-10-07T00:02:17.417Z,72
2018-10-07T00:02:29.590Z,72
2018-10-07T00:02:41.751Z,72
2018-10-07T00:02:53.903Z,72
2018-10-07T00:03:06.062Z,73
2018-10-07T00:03:18.214Z,73
2018-10-07T00:03:30.408Z,73
2018-10-07T00:03:42.570Z,73
2018-10-07T00:03:54.880Z,73
2018-10-07T00:04:07.043Z,73
2018-10-07T00:04:19.205Z,73
2018-10-07T00:04:31.394Z,73
2018-10-07T00:04:43.577Z,73
2018-10-07T00:04:55.845Z,73
2018-10-07T00:05:08.013Z,73
2018-10-07T00:05:20.182Z,73
2018-10-07T00:05:32.367Z,73
2018-10-07T00:05:44.545Z,73
2018-10-07T00:05:56.687Z,73
2018-10-07T00:06:08.857Z,73
2018-10-07T00:06:21.025Z,73
2018-10-07T00:06:33.408Z,73
2018-10-07T00:06:45.601Z,73
2018-10-07T00:06:57.763Z,73
2018-10-07T00:07:09.939Z,73
2018-10-07T00:07:22.109Z,73
2018-10-07T00:07:34.284Z,73
2018-10-07T00:07:46.466Z,73
2018-10-07T00:07:58.634Z,73
2018-10-07T00:08:10.810Z,73
2018-10-07T00:08:22.998Z,73
2018-10-07T00:08:35.165Z,73
2018-10-07T00:08:47.306Z,73
2018-10-07T00:08:59.474Z,73
2018-10-07T00:09:11.639Z,73
2018-10-07T00:09:23.980Z,73
2018-10-07T00:09:36.125Z,73
2018-10-07T00:09:48.280Z,73
2018-10-07T00:10:00.455Z,73
2018-10-07T00:10:12.654Z,73
2018-10-07T00:10:24.821Z,73
2018-10-07T00:10:37.004Z,73
2018-10-07T00:10:49.165Z,73
2018-10-07T00:11:01.331Z,73
2018-10-07T00:11:13.504Z,73
2018-10-07T00:11:25.664Z,73
2018-10-07T00:11:37.826Z,73
2018-10-07T00:11:50.009Z,73
2018-10-07T00:12:02.227Z,73
2018-10-07T00:12:14.395Z,73
2018-10-07T00:12:26.567Z,73
2018-10-07T00:12:38.923Z,73
2018-10-07T00:12:51.105Z,73
2018-10-07T00:13:03.451Z,73
2018-10-07T00:13:15.658Z,73
2018-10-07T00:13:27.920Z,73
2018-10-07T00:13:40.084Z,73
2018-10-07T00:13:52.253Z,73
2018-10-07T00:14:04.425Z,73
2018-10-07T00:14:16.599Z,73
2018-10-07T00:14:28.767Z,73
2018-10-07T00:14:40.923Z,73
2018-10-07T00:14:53.110Z,73
2018-10-07T00:15:05.270Z,73
2018-10-07T00:15:17.453Z,73
2018-10-07T00:15:29.620Z,73
2018-10-07T00:15:41.760Z,73
2018-10-07T00:15:53.909Z,73
2018-10-07T00:16:06.066Z,73
2018-10-07T00:16:18.233Z,73
2018-10-07T00:16:30.463Z,73
2018-10-07T00:16:42.627Z,73
2018-10-07T00:16:54.769Z,73
2018-10-07T00:17:07.213Z,73
2018-10-07T00:17:19.382Z,73
2018-10-07T00:17:31.537Z,73
2018-10-07T00:17:43.685Z,73
2018-10-07T00:17:55.838Z,73
2018-10-07T00:18:07.986Z,73
2018-10-07T00:18:20.168Z,73
2018-10-07T00:18:32.323Z,73
2018-10-07T00:18:44.478Z,73
2018-10-07T00:18:56.644Z,73
2018-10-07T00:19:08.805Z,73
2018-10-07T00:19:20.975Z,73
2018-10-07T00:19:33.124Z,73
2018-10-07T00:19:45.288Z,73
2018-10-07T00:19:57.650Z,73
2018-10-07T00:20:09.794Z,73
2018-10-07T00:20:21.950Z,73
2018-10-07T00:20:34.112Z,73
2018-10-07T00:20:46.266Z,73
2018-10-07T00:20:58.457Z,73
2018-10-07T00:21:10.611Z,73
2018-10-07T00:21:22.939Z,73
2018-10-07T00:21:35.125Z,73
2018-10-07T00:21:47.288Z,73
2018-10-07T00:21:59.439Z,73
2018-10-07T00:22:11.660Z,73
2018-10-07T00:22:23.866Z,73
2018-10-07T00:22:36.038Z,73
2018-10-07T00:22:48.198Z,73
2018-10-07T00:23:00.347Z,73
2018-10-07T00:23:12.527Z,73
2018-10-07T00:23:24.705Z,73
2018-10-07T00:23:36.855Z,73
2018-10-07T00:23:49.044Z,73
2018-10-07T00:24:01.289Z,73
2018-10-07T00:24:13.607Z,73
2018-10-07T00:24:25.797Z,74
2018-10-07T00:24:37.981Z,74
2018-10-07T00:24:50.146Z,74
2018-10-07T00:25:02.296Z,74
2018-10-07T00:25:14.453Z,74
2018-10-07T00:25:26.615Z,74
2018-10-07T00:25:38.762Z,74
2018-10-07T00:25:50.921Z,74
2018-10-07T00:26:03.080Z,74
2018-10-07T00:26:15.249Z,74
2018-10-07T00:26:27.420Z,74
2018-10-07T00:26:39.574Z,74
2018-10-07T00:26:51.716Z,74
2018-10-07T00:27:03.857Z,74
2018-10-07T00:27:16.009Z,74
2018-10-07T00:27:28.149Z,74
2018-10-07T00:27:40.365Z,74
2018-10-07T00:27:52.522Z,74
2018-10-07T00:28:04.666Z,74
2018-10-07T00:28:16.810Z,74
2018-10-07T00:28:28.970Z,74
2018-10-07T00:28:41.138Z,74
2018-10-07T00:28:53.309Z,74
2018-10-07T00:29:05.530Z,74
2018-10-07T00:29:17.692Z,74
2018-10-07T00:29:29.874Z,74
2018-10-07T00:29:42.033Z,74
2018-10-07T00:29:54.205Z,74
2018-10-07T00:30:06.397Z,74
2018-10-07T00:30:18.568Z,74
2018-10-07T00:30:30.728Z,74
2018-10-07T00:30:43.019Z,74
2018-10-07T00:30:55.197Z,74
2018-10-07T00:31:07.361Z,74
2018-10-07T00:31:19.517Z,74
2018-10-07T00:31:31.814Z,74
2018-10-07T00:31:43.954Z,74
2018-10-07T00:31:56.100Z,74
2018-10-07T00:32:08.269Z,74
2018-10-07T00:32:20.422Z,74
2018-10-07T00:32:32.592Z,74
2018-10-07T00:32:44.776Z,74
2018-10-07T00:32:56.939Z,74
2018-10-07T00:33:09.140Z,74
2018-10-07T00:33:21.311Z,74
2018-10-07T00:33:33.636Z,74
2018-10-07T00:33:45.960Z,74
2018-10-07T00:33:58.157Z,74
2018-10-07T00:34:10.340Z,74
2018-10-07T00:34:22.505Z,74
2018-10-07T00:34:34.683Z,74
2018-10-07T00:34:46.824Z,74
2018-10-07T00:34:58.981Z,74
2018-10-07T00:35:11.149Z,74
2018-10-07T00:35:23.314Z,74
2018-10-07T00:35:35.574Z,74
2018-10-07T00:35:47.726Z,74
2018-10-07T00:36:00.039Z,74
2018-10-07T00:36:12.234Z,74
2018-10-07T00:36:24.568Z,74
2018-10-07T00:36:36.731Z,74
2018-10-07T00:36:48.984Z,74
2018-10-07T00:37:01.166Z,74
2018-10-07T00:37:13.339Z,74
2018-10-07T00:37:25.572Z,74
2018-10-07T00:37:37.755Z,74
2018-10-07T00:37:49.918Z,74
2018-10-07T00:38:02.751Z,75
2018-10-07T00:38:14.897Z,75
2018-10-07T00:38:27.092Z,75
2018-10-07T00:38:39.250Z,75
2018-10-07T00:38:51.405Z,75
2018-10-07T00:39:03.573Z,75
2018-10-07T00:39:15.721Z,75
2018-10-07T00:39:27.882Z,75
2018-10-07T00:39:40.183Z,75
2018-10-07T00:39:52.451Z,75
2018-10-07T00:40:04.658Z,75
2018-10-07T00:40:16.836Z,75
2018-10-07T00:40:29.006Z,75
2018-10-07T00:40:41.173Z,75
2018-10-07T00:40:53.355Z,75
2018-10-07T00:41:05.530Z,75
2018-10-07T00:41:17.700Z,75
2018-10-07T00:41:29.863Z,75
2018-10-07T00:41:42.153Z,75
2018-10-07T00:41:54.311Z,75
2018-10-07T00:42:06.490Z,75
2018-10-07T00:42:18.659Z,75
2018-10-07T00:42:30.824Z,75
2018-10-07T00:42:43.157Z,75
2018-10-07T00:42:55.316Z,75
2018-10-07T00:43:07.563Z,75
2018-10-07T00:43:19.727Z,75
2018-10-07T00:43:31.882Z,75
2018-10-07T00:43:44.048Z,75
2018-10-07T00:43:56.198Z,75
2018-10-07T00:44:08.440Z,75
2018-10-07T00:44:20.600Z,75
2018-10-07T00:44:32.793Z,75
2018-10-07T00:44:44.977Z,75
2018-10-07T00:44:57.160Z,75
2018-10-07T00:45:09.939Z,75
2018-10-07T00:45:22.143Z,75
2018-10-07T00:45:34.289Z,75
2018-10-07T00:45:46.425Z,75
2018-10-07T00:45:58.579Z,75
2018-10-07T00:46:10.748Z,75
2018-10-07T00:46:22.912Z,75
2018-10-07T00:46:35.077Z,75
2018-10-07T00:46:47.251Z,75
2018-10-07T00:46:59.407Z,75
2018-10-07T00:47:11.576Z,75
2018-10-07T00:47:23.741Z,75
2018-10-07T00:47:35.918Z,75
2018-10-07T00:47:48.071Z,75
2018-10-07T00:48:00.247Z,75
2018-10-07T00:48:12.411Z,75
2018-10-07T00:48:24.579Z,75
2018-10-07T00:48:36.741Z,75
2018-10-07T00:48:48.889Z,75
2018-10-07T00:49:01.036Z,75
2018-10-07T00:49:13.185Z,75
2018-10-07T00:49:25.349Z,75
2018-10-07T00:49:37.710Z,75
2018-10-07T00:49:49.883Z,75
2018-10-07T00:50:02.055Z,75
2018-10-07T00:50:14.349Z,75
2018-10-07T00:50:26.702Z,75
2018-10-07T00:50:38.858Z,75
2018-10-07T00:50:51.057Z,75
2018-10-07T00:51:03.242Z,75
2018-10-07T00:51:15.426Z,75
2018-10-07T00:51:27.570Z,75
2018-10-07T00:51:39.711Z,75
2018-10-07T00:51:51.871Z,75
2018-10-07T00:52:04.060Z,75
2018-10-07T00:52:16.212Z,75
2018-10-07T00:52:28.377Z,75
2018-10-07T00:52:40.545Z,75
2018-10-07T00:52:52.707Z,75
2018-10-07T00:53:04.862Z,75
2018-10-07T00:53:17.454Z,75
2018-10-07T00:53:29.606Z,75
2018-10-07T00:53:41.769Z,75
2018-10-07T00:53:53.988Z,75
2018-10-07T00:54:06.129Z,75
2018-10-07T00:54:18.287Z,76
2018-10-07T00:54:30.459Z,76
2018-10-07T00:54:42.697Z,76
2018-10-07T00:54:54.876Z,76
2018-10-07T00:55:07.055Z,76
2018-10-07T00:55:19.683Z,76
2018-10-07T00:55:31.872Z,76
2018-10-07T00:55:44.029Z,76
2018-10-07T00:55:56.177Z,76
2018-10-07T00:56:08.345Z,76
2018-10-07T00:56:20.506Z,76
2018-10-07T00:56:32.649Z,76
2018-10-07T00:56:44.800Z,76
2018-10-07T00:56:56.960Z,76
2018-10-07T00:57:09.131Z,76
2018-10-07T00:57:21.304Z,76
2018-10-07T00:57:33.619Z,76
2018-10-07T00:57:45.803Z,76
2018-10-07T00:57:57.989Z,76
2018-10-07T00:58:10.138Z,76
2018-10-07T00:58:22.475Z,76
2018-10-07T00:58:34.663Z,76
2018-10-07T00:58:46.801Z,76
2018-10-07T00:58:58.953Z,76
2018-10-07T00:59:11.117Z,76
2018-10-07T00:59:23.265Z,76
2018-10-07T00:59:35.414Z,76
2018-10-07T00:59:47.578Z,76
2018-10-07T00:59:59.841Z,76
2018-10-07T01:00:12.043Z,76
2018-10-07T01:00:24.225Z,76
2018-10-07T01:00:36.407Z,76
2018-10-07T01:00:48.602Z,76
2018-10-07T01:01:00.786Z,76
2018-10-07T01:01:12.965Z,76
2018-10-07T01:01:25.148Z,76
2018-10-07T01:01:37.319Z,76
2018-10-07T01:01:49.557Z,76
2018-10-07T01:02:01.749Z,77
2018-10-07T01:02:13.947Z,77
2018-10-07T01:02:26.135Z,77
2018-10-07T01:02:38.281Z,77
2018-10-07T01:02:50.439Z,77
2018-10-07T01:03:02.594Z,77
2018-10-07T01:03:14.784Z,77
2018-10-07T01:03:26.922Z,77
2018-10-07T01:03:39.084Z,77
2018-10-07T01:03:51.253Z,77
2018-10-07T01:04:03.722Z,77
2018-10-07T01:04:15.872Z,77
2018-10-07T01:04:28.034Z,77
2018-10-07T01:04:40.201Z,77
2018-10-07T01:04:52.471Z,77
2018-10-07T01:05:04.630Z,77
2018-10-07T01:05:16.782Z,77
2018-10-07T01:05:28.941Z,77
2018-10-07T01:05:41.089Z,77
2018-10-07T01:05:53.246Z,77
2018-10-07T01:06:05.439Z,77
2018-10-07T01:06:17.601Z,77
2018-10-07T01:06:29.752Z,77
2018-10-07T01:06:42.488Z,77
2018-10-07T01:06:54.628Z,77
2018-10-07T01:07:06.788Z,77
2018-10-07T01:07:18.973Z,77
2018-10-07T01:07:31.204Z,77
2018-10-07T01:07:43.406Z,77
2018-10-07T01:07:55.575Z,77
2018-10-07T01:08:07.724Z,77
2018-10-07T01:08:19.856Z,77
2018-10-07T01:08:32.027Z,77
2018-10-07T01:08:44.189Z,77
2018-10-07T01:08:56.345Z,77
2018-10-07T01:09:08.520Z,77
2018-10-07T01:09:20.679Z,77
2018-10-07T01:09:32.856Z,77
2018-10-07T01:09:45.025Z,77
2018-10-07T01:09:57.196Z,77
2018-10-07T01:10:09.370Z,77
2018-10-07T01:10:21.534Z,77
2018-10-07T01:10:33.702Z,77
2018-10-07T01:10:45.847Z,77
2018-10-07T01:10:57.997Z,77
2018-10-07T01:11:10.149Z,77
2018-10-07T01:11:22.342Z,77
2018-10-07T01:11:34.537Z,77
2018-10-07T01:11:46.977Z,77
2018-10-07T01:11:59.152Z,77
2018-10-07T01:12:11.308Z,77
2018-10-07T01:12:23.481Z,77
2018-10-07T01:12:35.810Z,77
2018-10-07T01:12:47.967Z,77
2018-10-07T01:13:00.168Z,78
2018-10-07T01:13:12.346Z,78
2018-10-07T01:13:24.709Z,78
2018-10-07T01:13:36.885Z,78
2018-10-07T01:13:49.073Z,78
2018-10-07T01:14:01.258Z,78
2018-10-07T01:14:13.449Z,78
2018-10-07T01:14:25.613Z,78
2018-10-07T01:14:37.791Z,78
2018-10-07T01:14:49.970Z,78
2018-10-07T01:15:02.152Z,78
2018-10-07T01:15:14.346Z,78
2018-10-07T01:15:26.498Z,78
2018-10-07T01:15:38.662Z,78
2018-10-07T01:15:50.834Z,78
2018-10-07T01:16:03.067Z,78
2018-10-07T01:16:15.353Z,78
2018-10-07T01:16:27.502Z,78
2018-10-07T01:16:39.652Z,78
2018-10-07T01:16:51.813Z,78
2018-10-07T01:17:03.993Z,78
2018-10-07T01:17:16.305Z,78
2018-10-07T01:17:28.454Z,78
2018-10-07T01:17:40.594Z,78
2018-10-07T01:17:52.806Z,78
2018-10-07T01:18:05.000Z,79
2018-10-07T01:18:17.158Z,79
2018-10-07T01:18:29.315Z,79
2018-10-07T01:18:41.449Z,79
2018-10-07T01:18:53.626Z,79
2018-10-07T01:19:05.844Z,79
2018-10-07T01:19:18.015Z,79
2018-10-07T01:19:30.171Z,79
2018-10-07T01:19:42.350Z,79
2018-10-07T01:19:54.700Z,79
2018-10-07T01:20:06.871Z,79
2018-10-07T01:20:19.176Z,79
2018-10-07T01:20:31.515Z,79
2018-10-07T01:20:43.672Z,79
2018-10-07T01:20:55.848Z,79
2018-10-07T01:21:08.023Z,79
2018-10-07T01:21:20.341Z,79
2018-10-07T01:21:32.503Z,79
2018-10-07T01:21:44.677Z,79
2018-10-07T01:21:56.882Z,79
2018-10-07T01:22:09.117Z,79
2018-10-07T01:22:21.297Z,79
2018-10-07T01:22:33.458Z,79
2018-10-07T01:22:45.655Z,79
2018-10-07T01:22:57.824Z,79
2018-10-07T01:23:09.994Z,79
2018-10-07T01:23:22.156Z,79
2018-10-07T01:23:34.302Z,79
2018-10-07T01:23:46.469Z,79
2018-10-07T01:23:58.612Z,79
2018-10-07T01:24:11.189Z,79
2018-10-07T01:24:23.351Z,79
2018-10-07T01:24:35.503Z,79
2018-10-07T01:24:47.693Z,79
2018-10-07T01:24:59.834Z,79
2018-10-07T01:25:11.993Z,79
2018-10-07T01:25:24.144Z,79
2018-10-07T01:25:36.285Z,79
2018-10-07T01:25:48.563Z,79
2018-10-07T01:26:00.724Z,79
2018-10-07T01:26:12.901Z,79
2018-10-07T01:26:25.097Z,79
2018-10-07T01:26:37.239Z,79
2018-10-07T01:26:49.406Z,79
2018-10-07T01:27:01.624Z,79
2018-10-07T01:27:13.779Z,79
2018-10-07T01:27:25.938Z,79
2018-10-07T01:27:38.094Z,79
2018-10-07T01:27:50.318Z,79
2018-10-07T01:28:02.523Z,79
2018-10-07T01:28:14.707Z,79
2018-10-07T01:28:26.887Z,79
2018-10-07T01:28:39.045Z,79
2018-10-07T01:28:51.201Z,79
2018-10-07T01:29:03.394Z,79
2018-10-07T01:29:15.666Z,79
2018-10-07T01:29:27.844Z,79
2018-10-07T01:29:40.024Z,79
2018-10-07T01:29:52.215Z,79
2018-10-07T01:30:04.410Z,79
2018-10-07T01:30:16.594Z,79
2018-10-07T01:30:28.756Z,79
2018-10-07T01:30:40.985Z,79
2018-10-07T01:30:53.148Z,79
2018-10-07T01:31:05.367Z,79
2018-10-07T01:31:17.551Z,79
2018-10-07T01:31:29.725Z,79
2018-10-07T01:31:41.900Z,79
2018-10-07T01:31:54.059Z,79
2018-10-07T01:32:06.207Z,79
2018-10-07T01:32:18.523Z,79
2018-10-07T01:32:30.670Z,79
2018-10-07T01:32:42.830Z,79
2018-10-07T01:32:55.002Z,79
2018-10-07T01:33:07.179Z,79
2018-10-07T01:33:19.326Z,79
2018-10-07T01:33:31.501Z,79
2018-10-07T01:33:43.665Z,79
2018-10-07T01:33:55.834Z,79
2018-10-07T01:34:07.984Z,79
2018-10-07T01:34:20.156Z,78
2018-10-07T01:34:32.312Z,78
2018-10-07T01:34:44.470Z,78
2018-10-07T01:34:56.630Z,78
2018-10-07T01:35:08.790Z,78
2018-10-07T01:35:20.989Z,78
2018-10-07T01:35:33.655Z,78
2018-10-07T01:35:45.839Z,78
2018-10-07T01:35:58.215Z,78
2018-10-07T01:36:10.389Z,78
2018-10-07T01:36:22.551Z,78
2018-10-07T01:36:34.710Z,78
2018-10-07T01:36:46.916Z,78
2018-10-07T01:36:59.078Z,78
2018-10-07T01:37:11.307Z,78
2018-10-07T01:37:23.531Z,78
2018-10-07T01:37:35.713Z,78
2018-10-07T01:37:47.885Z,78
2018-10-07T01:38:00.311Z,78
2018-10-07T01:38:12.631Z,78
2018-10-07T01:38:24.936Z,78
2018-10-07T01:38:37.169Z,78
2018-10-07T01:38:49.328Z,78
2018-10-07T01:39:01.471Z,78
2018-10-07T01:39:13.634Z,78
2018-10-07T01:39:25.792Z,78
2018-10-07T01:39:37.940Z,78
2018-10-07T01:39:50.251Z,78
2018-10-07T01:40:02.420Z,78
2018-10-07T01:40:14.582Z,78
2018-10-07T01:40:26.767Z,78
2018-10-07T01:40:38.924Z,78
2018-10-07T01:40:51.485Z,78
2018-10-07T01:41:03.629Z,78
2018-10-07T01:41:15.790Z,78
2018-10-07T01:41:27.948Z,78
2018-10-07T01:41:40.120Z,78
2018-10-07T01:41:52.301Z,78
2018-10-07T01:42:04.455Z,78
2018-10-07T01:42:16.633Z,78
2018-10-07T01:42:28.792Z,78
2018-10-07T01:42:40.964Z,78
2018-10-07T01:42:53.128Z,78
2018-10-07T01:43:05.279Z,78
2018-10-07T01:43:17.474Z,78
2018-10-07T01:43:29.645Z,78
2018-10-07T01:43:41.850Z,78
2018-10-07T01:43:54.003Z,77
2018-10-07T01:44:06.699Z,77
2018-10-07T01:44:18.941Z,77
2018-10-07T01:44:31.084Z,77
2018-10-07T01:44:43.230Z,77
2018-10-07T01:44:55.391Z,77
2018-10-07T01:45:07.767Z,77
2018-10-07T01:45:20.110Z,77
2018-10-07T01:45:32.266Z,77
2018-10-07T01:45:44.421Z,77
2018-10-07T01:45:56.636Z,77
2018-10-07T01:46:08.771Z,77
2018-10-07T01:46:20.931Z,77
2018-10-07T01:46:33.077Z,77
2018-10-07T01:46:45.247Z,77
2018-10-07T01:46:57.400Z,77
2018-10-07T01:47:09.555Z,77
2018-10-07T01:47:21.719Z,77
2018-10-07T01:47:33.879Z,77
2018-10-07T01:47:46.030Z,77
2018-10-07T01:47:58.181Z,77
2018-10-07T01:48:10.326Z,77
2018-10-07T01:48:22.472Z,77
2018-10-07T01:48:34.643Z,77
2018-10-07T01:48:46.816Z,77
2018-10-07T01:48:58.978Z,77
2018-10-07T01:49:11.200Z,77
2018-10-07T01:49:23.349Z,77
2018-10-07T01:49:35.955Z,77
2018-10-07T01:49:48.115Z,77
2018-10-07T01:50:00.297Z,77
2018-10-07T01:50:12.609Z,77
2018-10-07T01:50:24.895Z,77
2018-10-07T01:50:37.124Z,77
2018-10-07T01:50:49.347Z,77
2018-10-07T01:51:01.495Z,77
2018-10-07T01:51:13.662Z,77
2018-10-07T01:51:25.820Z,77
2018-10-07T01:51:37.995Z,77
2018-10-07T01:51:50.146Z,77
2018-10-07T01:52:02.324Z,77
2018-10-07T01:52:14.512Z,77
2018-10-07T01:52:26.704Z,77
2018-10-07T01:52:38.848Z,77
2018-10-07T01:52:51.016Z,77
2018-10-07T01:53:03.203Z,77
2018-10-07T01:53:15.453Z,77
2018-10-07T01:53:27.618Z,77
2018-10-07T01:53:39.844Z,77
2018-10-07T01:53:51.985Z,77
2018-10-07T01:54:04.150Z,77
2018-10-07T01:54:16.290Z,77
2018-10-07T01:54:28.446Z,77
2018-10-07T01:54:40.600Z,77
2018-10-07T01:54:52.804Z,77
2018-10-07T01:55:05.028Z,77
2018-10-07T01:55:17.200Z,77
2018-10-07T01:55:29.467Z,77
2018-10-07T01:55:41.664Z,77
2018-10-07T01:55:53.809Z,77
2018-10-07T01:56:05.972Z,77
2018-10-07T01:56:18.138Z,77
2018-10-07T01:56:30.372Z,77
2018-10-07T01:56:42.544Z,77
2018-10-07T01:56:54.701Z,77
2018-10-07T01:57:06.881Z,77
2018-10-07T01:57:19.100Z,77
2018-10-07T01:57:31.255Z,77
2018-10-07T01:57:43.935Z,77
2018-10-07T01:57:56.140Z,77
2018-10-07T01:58:08.289Z,77
2018-10-07T01:58:20.460Z,77
2018-10-07T01:58:32.602Z,77
2018-10-07T01:58:44.793Z,77
2018-10-07T01:58:57.086Z,77
2018-10-07T01:59:09.311Z,77
2018-10-07T01:59:22.041Z,77
2018-10-07T01:59:35.464Z,77
2018-10-07T01:59:47.652Z,77
2018-10-07T01:59:59.930Z,77
2018-10-07T02:00:12.121Z,77
2018-10-07T02:00:24.308Z,77
2018-10-07T02:00:36.526Z,77
2018-10-07T02:00:48.736Z,77
2018-10-07T02:01:00.971Z,77
2018-10-07T02:01:13.224Z,77
2018-10-07T02:01:25.468Z,77
2018-10-07T02:01:37.702Z,77
2018-10-07T02:01:50.040Z,77
2018-10-07T02:02:02.293Z,77
2018-10-07T02:02:14.511Z,77
2018-10-07T02:02:26.663Z,77
2018-10-07T02:02:38.822Z,77
2018-10-07T02:02:51.009Z,77
2018-10-07T02:03:03.173Z,77
2018-10-07T02:03:15.344Z,77
2018-10-07T02:03:27.493Z,77
2018-10-07T02:03:39.653Z,77
2018-10-07T02:03:51.814Z,77
2018-10-07T02:04:04.154Z,77
2018-10-07T02:04:16.322Z,77
2018-10-07T02:04:28.543Z,77
2018-10-07T02:04:40.710Z,77
2018-10-07T02:04:53.092Z,77
2018-10-07T02:05:06.214Z,77
2018-10-07T02:05:19.467Z,77
2018-10-07T02:05:31.636Z,77
2018-10-07T02:05:43.810Z,77
2018-10-07T02:05:55.970Z,78
2018-10-07T02:06:08.126Z,78
2018-10-07T02:06:20.312Z,78
2018-10-07T02:06:32.805Z,78
2018-10-07T02:06:44.962Z,78
2018-10-07T02:06:57.149Z,77
2018-10-07T02:07:09.382Z,77
2018-10-07T02:07:21.549Z,77
2018-10-07T02:07:33.721Z,77
2018-10-07T02:07:45.869Z,78
2018-10-07T02:07:58.038Z,78
2018-10-07T02:08:10.231Z,78
2018-10-07T02:08:22.402Z,78
2018-10-07T02:08:34.581Z,78
2018-10-07T02:08:46.734Z,78
2018-10-07T02:08:58.903Z,78
2018-10-07T02:09:11.105Z,78
2018-10-07T02:09:23.346Z,78
2018-10-07T02:09:35.521Z,78
2018-10-07T02:09:47.729Z,78
2018-10-07T02:09:59.886Z,78
2018-10-07T02:10:12.091Z,78
2018-10-07T02:10:24.242Z,78
2018-10-07T02:10:36.396Z,78
2018-10-07T02:10:48.565Z,78
2018-10-07T02:11:00.731Z,78
2018-10-07T02:11:12.969Z,78
2018-10-07T02:11:25.152Z,78
2018-10-07T02:11:37.338Z,78
2018-10-07T02:11:49.517Z,78
2018-10-07T02:12:01.682Z,78
2018-10-07T02:12:13.871Z,78
2018-10-07T02:12:26.063Z,78
2018-10-07T02:12:38.401Z,78
2018-10-07T02:12:50.599Z,78
2018-10-07T02:13:02.782Z,78
2018-10-07T02:13:14.983Z,78
2018-10-07T02:13:27.355Z,78
2018-10-07T02:13:39.530Z,78
2018-10-07T02:13:52.238Z,78
2018-10-07T02:14:05.652Z,78
2018-10-07T02:14:17.870Z,78
2018-10-07T02:14:30.045Z,78
2018-10-07T02:14:42.209Z,78
2018-10-07T02:14:54.401Z,78
2018-10-07T02:15:06.615Z,78
2018-10-07T02:15:18.793Z,78
2018-10-07T02:15:30.949Z,78
2018-10-07T02:15:43.095Z,78
2018-10-07T02:15:55.254Z,78
2018-10-07T02:16:07.404Z,78
2018-10-07T02:16:19.555Z,78
2018-10-07T02:16:31.722Z,78
2018-10-07T02:16:43.870Z,78
2018-10-07T02:16:56.042Z,78
2018-10-07T02:17:08.504Z,78
2018-10-07T02:17:21.199Z,78
2018-10-07T02:17:33.361Z,78
2018-10-07T02:17:45.576Z,78
2018-10-07T02:17:57.719Z,78
2018-10-07T02:18:09.881Z,78
2018-10-07T02:18:22.067Z,78
2018-10-07T02:18:34.262Z,78
2018-10-07T02:18:46.409Z,78
2018-10-07T02:18:58.595Z,78
2018-10-07T02:19:10.753Z,78
2018-10-07T02:19:22.908Z,78
2018-10-07T02:19:35.067Z,78
2018-10-07T02:19:47.295Z,78
2018-10-07T02:19:59.613Z,78
2018-10-07T02:20:11.778Z,78
2018-10-07T02:20:23.923Z,78
2018-10-07T02:20:36.078Z,79
2018-10-07T02:20:48.238Z,79
2018-10-07T02:21:00.413Z,79
2018-10-07T02:21:12.870Z,79
2018-10-07T02:21:25.250Z,79
2018-10-07T02:21:37.439Z,79
2018-10-07T02:21:49.594Z,79
2018-10-07T02:22:01.753Z,79
2018-10-07T02:22:13.922Z,79
2018-10-07T02:22:26.112Z,79
2018-10-07T02:22:38.263Z,79
2018-10-07T02:22:50.421Z,79
2018-10-07T02:23:02.576Z,79
2018-10-07T02:23:14.740Z,79
2018-10-07T02:23:26.926Z,79
2018-10-07T02:23:39.115Z,79
2018-10-07T02:23:51.303Z,79
2018-10-07T02:24:03.583Z,79
2018-10-07T02:24:15.867Z,79
2018-10-07T02:24:28.065Z,79
2018-10-07T02:24:40.223Z,79
2018-10-07T02:24:52.403Z,79
2018-10-07T02:25:04.583Z,79
2018-10-07T02:25:16.743Z,79
2018-10-07T02:25:28.904Z,79
2018-10-07T02:25:41.062Z,79
2018-10-07T02:25:53.213Z,79
2018-10-07T02:26:05.375Z,79
2018-10-07T02:26:17.736Z,79
2018-10-07T02:26:29.953Z,78
2018-10-07T02:26:42.102Z,78
2018-10-07T02:26:54.357Z,78
2018-10-07T02:27:06.522Z,78
2018-10-07T02:27:18.726Z,79
2018-10-07T02:27:30.887Z,79
2018-10-07T02:27:43.043Z,79
2018-10-07T02:27:55.191Z,79
2018-10-07T02:28:07.358Z,79
2018-10-07T02:28:19.527Z,79
2018-10-07T02:28:31.668Z,79
2018-10-07T02:28:43.841Z,79
2018-10-07T02:28:55.994Z,79
2018-10-07T02:29:08.153Z,79
2018-10-07T02:29:20.301Z,79
2018-10-07T02:29:32.464Z,79
2018-10-07T02:29:44.604Z,79
2018-10-07T02:29:56.754Z,79
2018-10-07T02:30:08.951Z,79
2018-10-07T02:30:21.194Z,79
2018-10-07T02:30:33.515Z,79
2018-10-07T02:30:45.723Z,79
2018-10-07T02:30:57.896Z,79
2018-10-07T02:31:10.087Z,79
2018-10-07T02:31:22.424Z,79
2018-10-07T02:31:34.610Z,79
2018-10-07T02:31:46.792Z,79
2018-10-07T02:31:59.007Z,79
2018-10-07T02:32:11.187Z,79
2018-10-07T02:32:23.373Z,79
2018-10-07T02:32:35.568Z,79
2018-10-07T02:32:47.827Z,79
2018-10-07T02:33:00.009Z,79
2018-10-07T02:33:12.186Z,79
2018-10-07T02:33:24.363Z,80
2018-10-07T02:33:36.609Z,80
2018-10-07T02:33:48.789Z,80
2018-10-07T02:34:00.967Z,80
2018-10-07T02:34:13.140Z,80
2018-10-07T02:34:25.309Z,80
2018-10-07T02:34:37.472Z,80
2018-10-07T02:34:49.706Z,80
2018-10-07T02:35:01.901Z,80
2018-10-07T02:35:14.208Z,80
2018-10-07T02:35:26.386Z,80
2018-10-07T02:35:38.728Z,80
2018-10-07T02:35:50.964Z,80
2018-10-07T02:36:03.329Z,80
2018-10-07T02:36:15.522Z,80
2018-10-07T02:36:27.843Z,80
2018-10-07T02:36:40.101Z,80
2018-10-07T02:36:52.271Z,80
2018-10-07T02:37:04.425Z,80
2018-10-07T02:37:16.606Z,80
2018-10-07T02:37:28.774Z,80
2018-10-07T02:37:40.949Z,80
2018-10-07T02:37:53.095Z,80
2018-10-07T02:38:05.322Z,80
2018-10-07T02:38:17.533Z,80
2018-10-07T02:38:30.028Z,80
2018-10-07T02:38:42.200Z,80
2018-10-07T02:38:54.362Z,80
2018-10-07T02:39:06.515Z,80
2018-10-07T02:39:18.772Z,80
2018-10-07T02:39:30.938Z,80
2018-10-07T02:39:43.113Z,80
2018-10-07T02:39:55.940Z,80
2018-10-07T02:40:08.100Z,80
2018-10-07T02:40:20.258Z,80
2018-10-07T02:40:32.424Z,80
2018-10-07T02:40:44.582Z,80
2018-10-07T02:40:56.746Z,80
2018-10-07T02:41:08.912Z,80
2018-10-07T02:41:21.122Z,80
2018-10-07T02:41:33.292Z,80
2018-10-07T02:41:45.471Z,80
2018-10-07T02:41:57.635Z,80
2018-10-07T02:42:09.841Z,80
2018-10-07T02:42:22.003Z,80
2018-10-07T02:42:34.176Z,80
2018-10-07T02:42:46.336Z,80
2018-10-07T02:42:58.496Z,80
2018-10-07T02:43:10.670Z,80
2018-10-07T02:43:22.829Z,80
2018-10-07T02:43:34.980Z,80
2018-10-07T02:43:47.136Z,80
2018-10-07T02:43:59.304Z,80
2018-10-07T02:44:11.584Z,80
2018-10-07T02:44:23.736Z,80
2018-10-07T02:44:35.936Z,80
2018-10-07T02:44:48.478Z,80
2018-10-07T02:45:00.664Z,80
2018-10-07T02:45:12.891Z,80
2018-10-07T02:45:25.045Z,80
2018-10-07T02:45:37.195Z,80
2018-10-07T02:45:49.360Z,80
2018-10-07T02:46:01.593Z,80
2018-10-07T02:46:13.776Z,80
2018-10-07T02:46:25.947Z,80
2018-10-07T02:46:38.170Z,80
2018-10-07T02:46:50.341Z,80
2018-10-07T02:47:02.539Z,80
2018-10-07T02:47:14.694Z,80
2018-10-07T02:47:26.878Z,80
2018-10-07T02:47:39.026Z,80
2018-10-07T02:47:51.193Z,80
2018-10-07T02:48:03.384Z,80
2018-10-07T02:48:15.586Z,80
2018-10-07T02:48:27.763Z,80
2018-10-07T02:48:39.934Z,79
2018-10-07T02:48:52.085Z,79
2018-10-07T02:49:04.278Z,79
2018-10-07T02:49:16.446Z,79
2018-10-07T02:49:28.869Z,79
2018-10-07T02:49:41.057Z,79
2018-10-07T02:49:53.259Z,79
2018-10-07T02:50:05.433Z,79
2018-10-07T02:50:17.675Z,79
2018-10-07T02:50:29.856Z,79
2018-10-07T02:50:42.036Z,79
2018-10-07T02:50:54.244Z,79
2018-10-07T02:51:06.401Z,79
2018-10-07T02:51:18.580Z,79
2018-10-07T02:51:30.734Z,79
2018-10-07T02:51:42.909Z,79
2018-10-07T02:51:55.052Z,79
2018-10-07T02:52:07.219Z,79
2018-10-07T02:52:19.366Z,79
2018-10-07T02:52:31.578Z,79
2018-10-07T02:52:43.721Z,79
2018-10-07T02:52:55.889Z,79
2018-10-07T02:53:08.435Z,79
2018-10-07T02:53:21.941Z,79
2018-10-07T02:53:35.135Z,79
2018-10-07T02:53:47.304Z,79
2018-10-07T02:53:59.522Z,79